Terminal Aerodrome Forecast
Issued by NWS

Home | Current Version | Previous Version | Text Only | Print | Product List | Glossary On
Versions: 1 2 3 4 5 6 7 8 9 10 11 12 13 14 15 16 17 18 19 20 21 22
000
FTUS42 KFFC 161700 RRA
TAFFTY
TAF
KFTY 161742Z 1618/1718 32005KT P6SM VCSH SCT025 BKN050
     FM162000 33009KT P6SM VCSH SCT040 BKN120
     FM170200 00000KT P6SM SCT250
     FM170900 00000KT 5SM BR FEW250
     FM171500 33005KT P6SM FEW040 FEW250=

USA.gov is the U.S. government's official web portal to all federal, state and local government web resources and services.